createdAt,value
2023-02-18T00:00:29.198Z,0.52
2023-02-18T00:04:11.359Z,0.40
2023-02-18T00:07:53.632Z,0.40
2023-02-18T00:11:37.800Z,0.45
2023-02-18T00:15:19.950Z,0.40
2023-02-18T00:19:06.385Z,0.50
2023-02-18T00:22:48.543Z,0.77
2023-02-18T00:26:30.803Z,0.63
2023-02-18T00:30:13.231Z,0.40
2023-02-18T00:33:56.945Z,0.45
2023-02-18T00:37:38.932Z,0.43
2023-02-18T00:41:23.023Z,0.70
2023-02-18T00:45:05.437Z,0.70
2023-02-18T00:48:47.529Z,0.68
2023-02-18T00:52:29.782Z,0.70
2023-02-18T00:56:11.757Z,0.90
2023-02-18T00:59:53.793Z,0.82
2023-02-18T01:03:40.722Z,0.60
2023-02-18T01:07:22.786Z,0.77
2023-02-18T01:11:05.469Z,0.65
2023-02-18T01:14:47.538Z,0.68
2023-02-18T01:18:29.602Z,0.60
2023-02-18T01:22:12.001Z,0.88
2023-02-18T01:25:54.073Z,0.82
2023-02-18T01:29:36.613Z,1.08
2023-02-18T01:33:20.015Z,0.60
2023-02-18T01:37:02.043Z,0.70
2023-02-18T01:40:51.515Z,0.60
2023-02-18T01:44:34.765Z,0.85
2023-02-18T01:48:39.570Z,0.70
2023-02-18T01:52:26.559Z,0.98
2023-02-18T01:59:57.068Z,1.02
2023-02-18T02:03:39.121Z,0.60
2023-02-18T02:07:23.710Z,0.50
2023-02-18T02:11:25.196Z,0.60
2023-02-18T02:15:21.182Z,0.52
2023-02-18T02:19:11.765Z,0.70
2023-02-18T02:23:21.245Z,0.57
2023-02-18T02:27:13.493Z,0.40
2023-02-18T02:31:19.048Z,0.50
2023-02-18T02:35:10.527Z,0.60
2023-02-18T02:39:37.154Z,0.52
2023-02-18T02:43:57.578Z,0.60
2023-02-18T02:48:17.186Z,0.60
2023-02-18T02:52:28.773Z,0.60
2023-02-18T02:56:19.650Z,0.40
2023-02-18T03:00:07.269Z,0.60
2023-02-18T03:03:52.330Z,0.57
2023-02-18T03:07:42.594Z,0.40
2023-02-18T03:11:25.752Z,0.40
2023-02-18T03:15:32.014Z,0.50
2023-02-18T03:19:28.642Z,0.50
2023-02-18T03:23:16.712Z,0.60
2023-02-18T03:27:08.748Z,0.50
2023-02-18T03:31:15.441Z,0.60
2023-02-18T03:35:03.300Z,0.50
2023-02-18T03:38:54.195Z,0.40
2023-02-18T03:42:36.317Z,0.40
2023-02-18T03:46:19.127Z,0.40
2023-02-18T03:50:01.255Z,0.63
2023-02-18T03:53:43.236Z,0.52
2023-02-18T03:57:25.271Z,0.70
2023-02-18T04:01:07.429Z,0.80
2023-02-18T04:04:49.544Z,0.45
2023-02-18T04:08:31.626Z,0.70
2023-02-18T04:12:13.654Z,0.60
2023-02-18T04:15:55.665Z,0.50
2023-02-18T04:19:37.661Z,0.60
2023-02-18T04:23:19.635Z,0.50
2023-02-18T04:27:01.635Z,0.40
2023-02-18T04:30:44.976Z,0.38
2023-02-18T04:34:27.209Z,0.55
2023-02-18T04:38:10.440Z,0.38
2023-02-18T04:41:52.640Z,0.50
2023-02-18T04:45:34.745Z,0.40
2023-02-18T04:49:16.836Z,0.47
2023-02-18T04:52:58.863Z,0.70
2023-02-18T04:56:40.859Z,0.30
2023-02-18T05:00:22.953Z,0.40
2023-02-18T05:04:05.090Z,0.45
2023-02-18T05:07:47.083Z,0.82
2023-02-18T05:11:29.136Z,0.52
2023-02-18T05:15:11.147Z,0.93
2023-02-18T05:18:53.344Z,0.50
2023-02-18T05:22:35.427Z,0.55
2023-02-18T05:26:17.540Z,0.60
2023-02-18T05:29:59.636Z,0.57
2023-02-18T05:33:41.792Z,0.60
2023-02-18T05:37:23.888Z,0.73
2023-02-18T05:41:06.006Z,0.47
2023-02-18T05:44:48.016Z,0.68
2023-02-18T05:48:30.058Z,0.50
2023-02-18T05:52:12.745Z,0.57
2023-02-18T05:55:54.749Z,0.40
2023-02-18T05:59:36.731Z,0.40
2023-02-18T06:03:18.736Z,0.50
2023-02-18T06:07:00.835Z,0.57
2023-02-18T06:10:42.836Z,0.50
2023-02-18T06:14:24.948Z,0.40
2023-02-18T06:18:07.439Z,0.70
2023-02-18T06:21:49.546Z,0.40
2023-02-18T06:25:31.618Z,0.50
2023-02-18T06:29:13.688Z,0.60
2023-02-18T06:32:55.721Z,0.57
2023-02-18T06:36:37.681Z,0.50
2023-02-18T06:40:19.813Z,0.60
2023-02-18T06:44:01.761Z,0.57
2023-02-18T06:47:43.834Z,0.55
2023-02-18T06:51:26.149Z,0.47
2023-02-18T06:55:09.693Z,0.63
2023-02-18T06:58:51.693Z,0.60
2023-02-18T07:02:33.732Z,0.40
2023-02-18T07:06:15.770Z,0.63
2023-02-18T07:09:57.870Z,0.52
2023-02-18T07:13:39.866Z,0.52
2023-02-18T07:17:21.866Z,0.50
2023-02-18T07:21:03.977Z,0.60
2023-02-18T07:24:46.035Z,0.70
2023-02-18T07:28:28.994Z,0.57
2023-02-18T07:32:15.698Z,0.70
2023-02-18T07:36:00.024Z,0.50
2023-02-18T07:39:43.388Z,0.40
2023-02-18T07:43:25.450Z,0.50
2023-02-18T07:47:09.014Z,0.55
2023-02-18T07:50:50.960Z,0.30
2023-02-18T07:54:33.056Z,0.30
2023-02-18T07:58:27.714Z,0.35
2023-02-18T08:02:21.146Z,0.40
2023-02-18T08:06:04.954Z,0.40
2023-02-18T08:09:47.168Z,0.30
2023-02-18T08:13:30.740Z,0.30
2023-02-18T08:17:12.821Z,0.32
2023-02-18T08:20:55.815Z,0.30
2023-02-18T08:24:37.889Z,0.35
2023-02-18T08:28:21.543Z,0.30
2023-02-18T08:32:03.772Z,0.20
2023-02-18T08:35:46.617Z,0.30
2023-02-18T08:39:28.663Z,0.30
2023-02-18T08:43:11.191Z,0.10
2023-02-18T08:46:53.475Z,0.30
2023-02-18T08:50:35.992Z,0.20
2023-02-18T08:54:18.594Z,0.10
2023-02-18T08:58:01.460Z,0.10
2023-02-18T09:01:43.540Z,0.30
2023-02-18T09:05:25.705Z,0.20
2023-02-18T09:09:07.795Z,0.25
2023-02-18T09:12:50.224Z,0.10
2023-02-18T09:16:32.364Z,0.10
2023-02-18T09:20:14.563Z,0.10
2023-02-18T09:23:56.758Z,0.20
2023-02-18T09:27:39.092Z,0.20
2023-02-18T09:31:25.661Z,0.13
2023-02-18T09:35:08.058Z,0.10
2023-02-18T09:38:50.798Z,0.20
2023-02-18T09:42:35.150Z,0.20
2023-02-18T09:46:28.215Z,0.10
2023-02-18T09:50:23.892Z,0.13
2023-02-18T09:54:06.039Z,0.10
2023-02-18T09:57:51.239Z,0.10
2023-02-18T10:01:37.708Z,0.10
2023-02-18T10:05:21.235Z,0.20
2023-02-18T10:09:14.929Z,0.20
2023-02-18T10:12:57.425Z,0.10
2023-02-18T10:16:39.854Z,0.20
2023-02-18T10:20:24.643Z,0.20
2023-02-18T10:24:21.972Z,0.10
2023-02-18T10:28:04.497Z,0.10
2023-02-18T10:32:04.617Z,0.17
2023-02-18T10:35:54.253Z,0.20
2023-02-18T10:39:55.794Z,0.20
2023-02-18T10:43:56.050Z,0.20
2023-02-18T10:47:45.707Z,0.20
2023-02-18T10:51:32.580Z,0.30
2023-02-18T10:55:18.864Z,0.20
2023-02-18T10:59:18.097Z,0.20
2023-02-18T11:03:22.484Z,0.32
2023-02-18T11:07:16.757Z,0.50
2023-02-18T11:10:59.076Z,0.20
2023-02-18T11:14:46.459Z,0.28
2023-02-18T11:18:43.489Z,0.20
2023-02-18T11:22:30.000Z,0.10
2023-02-18T11:26:15.214Z,0.10
2023-02-18T11:30:06.690Z,0.20
2023-02-18T11:33:53.083Z,0.10
2023-02-18T11:37:37.634Z,0.30
2023-02-18T11:41:29.748Z,0.10
2023-02-18T11:45:27.976Z,0.00
2023-02-18T11:49:23.744Z,0.17
2023-02-18T11:53:32.951Z,0.20
2023-02-18T11:57:16.080Z,0.10
2023-02-18T12:01:01.248Z,0.10
2023-02-18T12:04:48.156Z,0.10
2023-02-18T12:08:35.741Z,0.10
2023-02-18T12:12:36.576Z,0.15
2023-02-18T12:16:46.127Z,0.10
2023-02-18T12:20:43.173Z,0.10
2023-02-18T12:24:55.325Z,0.10
2023-02-18T12:28:49.096Z,0.10
2023-02-18T12:32:36.362Z,0.20
2023-02-18T12:36:48.992Z,0.00
2023-02-18T12:40:55.271Z,0.10
2023-02-18T12:45:02.142Z,0.30
2023-02-18T12:49:05.947Z,0.10
2023-02-18T12:53:19.161Z,0.10
2023-02-18T12:57:14.830Z,0.20
2023-02-18T13:01:06.051Z,0.10
2023-02-18T13:05:09.658Z,0.22
2023-02-18T13:09:19.812Z,0.20
2023-02-18T13:13:17.527Z,0.10
2023-02-18T13:17:02.653Z,0.25
2023-02-18T13:20:57.922Z,0.30
2023-02-18T13:24:43.506Z,0.10
2023-02-18T13:28:47.011Z,0.10
2023-02-18T13:32:28.984Z,0.17
2023-02-18T13:36:26.628Z,0.10
2023-02-18T13:40:21.406Z,0.10
2023-02-18T13:44:09.192Z,0.10
2023-02-18T13:47:52.440Z,0.00
2023-02-18T13:51:42.291Z,0.10
2023-02-18T13:55:35.877Z,0.10
2023-02-18T13:59:22.412Z,0.20
2023-02-18T14:03:33.655Z,0.10
2023-02-18T14:07:33.792Z,0.20
2023-02-18T14:11:15.749Z,0.10
2023-02-18T14:14:59.064Z,0.00
2023-02-18T14:18:41.132Z,0.05
2023-02-18T14:22:46.125Z,0.10
2023-02-18T14:26:36.187Z,0.10
2023-02-18T14:30:33.629Z,0.30
2023-02-18T14:34:48.397Z,0.50
2023-02-18T14:38:38.809Z,0.30
2023-02-18T14:42:39.631Z,0.60
2023-02-18T14:46:41.861Z,0.60
2023-02-18T14:50:24.758Z,0.68
2023-02-18T14:54:13.331Z,0.55
2023-02-18T14:58:00.337Z,0.40
2023-02-18T15:01:42.379Z,0.47
2023-02-18T15:05:27.386Z,0.50
2023-02-18T15:09:18.517Z,0.35
2023-02-18T15:13:04.033Z,0.40
2023-02-18T15:16:47.000Z,0.45
2023-02-18T15:20:32.644Z,0.50
2023-02-18T15:24:27.780Z,0.30
2023-02-18T15:28:26.865Z,0.60
2023-02-18T15:32:21.911Z,0.73
2023-02-18T15:36:13.734Z,0.70
2023-02-18T15:39:55.865Z,1.30
2023-02-18T15:43:38.087Z,1.00
2023-02-18T15:47:23.454Z,0.90
2023-02-18T15:51:17.547Z,1.30
2023-02-18T15:55:12.133Z,0.98
2023-02-18T15:59:10.835Z,1.00
2023-02-18T16:02:56.640Z,1.05
2023-02-18T16:06:46.702Z,1.23
2023-02-18T16:10:36.334Z,1.00
2023-02-18T16:14:29.437Z,1.60
2023-02-18T16:18:24.055Z,0.90
2023-02-18T16:22:06.836Z,0.93
2023-02-18T16:25:49.696Z,0.60
2023-02-18T16:29:37.870Z,0.90
2023-02-18T16:33:19.859Z,0.80
2023-02-18T16:37:21.545Z,1.00
2023-02-18T16:41:03.656Z,0.90
2023-02-18T16:44:46.879Z,1.20
2023-02-18T16:48:42.985Z,1.00
2023-02-18T16:52:25.053Z,1.23
2023-02-18T16:56:17.086Z,1.25
2023-02-18T16:59:59.168Z,1.10
2023-02-18T17:03:41.176Z,1.42
2023-02-18T17:07:23.201Z,1.35
2023-02-18T17:11:05.406Z,1.67
2023-02-18T17:14:47.463Z,2.10
2023-02-18T17:18:29.502Z,1.70
2023-02-18T17:22:14.272Z,1.20
2023-02-18T17:25:56.365Z,1.50
2023-02-18T17:29:38.385Z,0.88
2023-02-18T17:33:20.515Z,1.60
2023-02-18T17:37:02.580Z,1.50
2023-02-18T17:40:44.629Z,1.58
2023-02-18T17:44:27.873Z,1.70
2023-02-18T17:48:10.192Z,1.42
2023-02-18T17:51:52.726Z,1.38
2023-02-18T17:55:36.821Z,1.50
2023-02-18T17:59:18.959Z,1.27
2023-02-18T18:03:01.370Z,1.30
2023-02-18T18:06:44.142Z,1.70
2023-02-18T18:10:30.836Z,1.77
2023-02-18T18:14:15.028Z,2.03
2023-02-18T18:17:58.199Z,2.13
2023-02-18T18:21:40.821Z,2.05
2023-02-18T18:25:29.208Z,2.22
2023-02-18T18:29:11.278Z,1.80
2023-02-18T18:32:53.836Z,2.67
2023-02-18T18:36:35.875Z,2.50
2023-02-18T18:40:19.429Z,2.45
2023-02-18T18:44:02.330Z,2.13
2023-02-18T18:47:44.991Z,2.47
2023-02-18T18:51:30.078Z,2.10
2023-02-18T18:55:27.111Z,2.90
2023-02-18T18:59:10.233Z,2.05
2023-02-18T19:02:52.373Z,2.70
2023-02-18T19:06:35.292Z,2.70
2023-02-18T19:10:18.398Z,2.42
2023-02-18T19:14:00.490Z,2.78
2023-02-18T19:17:51.601Z,2.45
2023-02-18T19:21:33.706Z,2.53
2023-02-18T19:25:16.822Z,2.35
2023-02-18T19:28:58.964Z,2.45
2023-02-18T19:32:40.929Z,3.15
2023-02-18T19:36:22.986Z,2.55
2023-02-18T19:40:06.949Z,2.33
2023-02-18T19:43:48.944Z,2.28
2023-02-18T19:47:31.089Z,3.67
2023-02-18T19:51:14.674Z,3.17
2023-02-18T19:54:57.361Z,3.17
2023-02-18T19:58:42.390Z,2.58
2023-02-18T20:02:26.073Z,3.22
2023-02-18T20:06:18.585Z,2.88
2023-02-18T20:10:00.569Z,2.78
2023-02-18T20:13:42.961Z,2.92
2023-02-18T20:17:24.967Z,3.58
2023-02-18T20:21:09.767Z,2.80
2023-02-18T20:24:51.968Z,2.97
2023-02-18T20:28:34.017Z,2.75
2023-02-18T20:32:18.462Z,2.70
2023-02-18T20:36:03.158Z,2.72
2023-02-18T20:39:45.209Z,2.95
2023-02-18T20:43:27.307Z,2.67
2023-02-18T20:47:09.513Z,2.55
2023-02-18T20:50:51.548Z,2.20
2023-02-18T20:54:33.600Z,2.35
2023-02-18T20:58:15.645Z,2.78
2023-02-18T21:01:57.707Z,2.90
2023-02-18T21:05:39.702Z,2.70
2023-02-18T21:09:21.920Z,2.03
2023-02-18T21:13:03.932Z,2.67
2023-02-18T21:16:46.351Z,2.47
2023-02-18T21:20:28.435Z,2.85
2023-02-18T21:24:10.726Z,2.67
2023-02-18T21:27:52.768Z,2.10
2023-02-18T21:31:37.369Z,3.17
2023-02-18T21:35:19.445Z,2.70
2023-02-18T21:39:04.573Z,2.90
2023-02-18T21:42:46.686Z,2.70
2023-02-18T21:46:31.959Z,2.67
2023-02-18T21:50:15.663Z,2.88
2023-02-18T21:53:57.702Z,2.22
2023-02-18T21:57:39.773Z,2.53
2023-02-18T22:01:21.836Z,2.60
2023-02-18T22:05:08.246Z,2.78
2023-02-18T22:08:50.266Z,2.00
2023-02-18T22:12:34.071Z,2.20
2023-02-18T22:16:16.156Z,1.92
2023-02-18T22:19:58.308Z,2.22
2023-02-18T22:23:40.316Z,2.15
2023-02-18T22:27:22.339Z,2.42
2023-02-18T22:31:12.532Z,2.30
2023-02-18T22:34:54.897Z,2.15
2023-02-18T22:38:39.690Z,2.50
2023-02-18T22:42:21.799Z,2.33
2023-02-18T22:46:05.927Z,3.00
2023-02-18T22:49:47.923Z,3.05
2023-02-18T22:53:29.918Z,3.10
2023-02-18T22:57:11.962Z,3.25
2023-02-18T23:00:53.989Z,3.03
2023-02-18T23:04:38.621Z,3.47
2023-02-18T23:08:21.172Z,3.90
2023-02-18T23:12:03.202Z,4.10
2023-02-18T23:15:55.331Z,3.30
2023-02-18T23:19:37.840Z,4.13
2023-02-18T23:23:19.832Z,3.40
2023-02-18T23:27:02.769Z,3.67
2023-02-18T23:30:44.796Z,4.00
2023-02-18T23:34:27.476Z,3.50
2023-02-18T23:38:09.714Z,3.50
2023-02-18T23:41:52.574Z,3.53
2023-02-18T23:45:34.544Z,3.13
2023-02-18T23:49:22.274Z,2.90
2023-02-18T23:53:04.288Z,3.13
2023-02-18T23:56:46.450Z,3.08
